Time;durP1;ratioP1;P1;durP2;ratioP2;P2;SDS_P1;SDS_P2;PMS_P1;PMS_P2;Temp;Humidity;BMP_temperature;BMP_pressure;BME280_temperature;BME280_humidity;BME280_pressure;Samples;Min_cycle;Max_cycle;Signal;HPM_P1;HPM_P2
2021/11/16 00:01:16;;;;;;;7.15;5.15;;;;;;;;;;5012740;28;20757;-56
2021/11/16 00:03:42;;;;;;;9.40;5.63;;;;;;;;;;5017326;28;20173;-54
2021/11/16 00:06:07;;;;;;;11.52;5.78;;;;;;;;;;5018571;28;20124;-55
2021/11/16 00:08:32;;;;;;;8.75;5.95;;;;;;;;;;5014011;28;20025;-55
2021/11/16 00:10:58;;;;;;;6.45;5.70;;;;;;;;;;5017502;28;20041;-54
2021/11/16 00:13:23;;;;;;;6.00;5.40;;;;;;;;;;5014043;28;20363;-55
2021/11/16 00:15:49;;;;;;;6.85;6.15;;;;;;;;;;5015809;28;20041;-55
2021/11/16 00:18:20;;;;;;;8.88;7.10;;;;;;;;;;5015878;28;20045;-56
2021/11/16 00:20:46;;;;;;;7.88;5.57;;;;;;;;;;5013529;28;20366;-56
2021/11/16 00:23:18;;;;;;;7.38;5.78;;;;;;;;;;5013705;28;20033;-55
2021/11/16 00:25:53;;;;;;;9.23;6.50;;;;;;;;;;5013625;28;20072;-54
2021/11/16 00:28:20;;;;;;;8.63;6.18;;;;;;;;;;5012196;28;20029;-54
2021/11/16 00:30:46;;;;;;;7.93;6.07;;;;;;;;;;5013836;28;20447;-55
2021/11/16 00:33:12;;;;;;;6.95;5.90;;;;;;;;;;5014928;28;20037;-56
2021/11/16 00:35:38;;;;;;;7.95;6.03;;;;;;;;;;5013198;28;20467;-56
2021/11/16 00:38:10;;;;;;;17.38;7.55;;;;;;;;;;5014106;28;20123;-58
2021/11/16 00:40:37;;;;;;;9.48;6.57;;;;;;;;;;5014722;28;20414;-59
2021/11/16 00:43:05;;;;;;;8.05;6.47;;;;;;;;;;5015119;28;20470;-58
2021/11/16 00:45:31;;;;;;;6.70;5.45;;;;;;;;;;5014193;28;20041;-58
2021/11/16 00:47:56;;;;;;;10.73;6.95;;;;;;;;;;5016669;28;20430;-58
2021/11/16 00:50:22;;;;;;;10.02;6.80;;;;;;;;;;5016481;28;20083;-58
2021/11/16 00:52:48;;;;;;;6.28;5.10;;;;;;;;;;5013018;28;20395;-58
2021/11/16 00:55:14;;;;;;;6.95;6.30;;;;;;;;;;5013648;28;20439;-58
2021/11/16 00:57:40;;;;;;;13.88;6.22;;;;;;;;;;4999353;28;20037;-58
2021/11/16 01:00:08;;;;;;;12.13;4.93;;;;;;;;;;5013992;28;20055;-58
2021/11/16 01:02:33;;;;;;;9.75;6.53;;;;;;;;;;5015744;28;20026;-58
2021/11/16 01:04:58;;;;;;;12.27;5.50;;;;;;;;;;5014195;28;20029;-58
2021/11/16 01:07:24;;;;;;;12.20;6.57;;;;;;;;;;5016466;28;20456;-55
2021/11/16 01:09:49;;;;;;;11.25;6.53;;;;;;;;;;5017638;28;20478;-55
2021/11/16 01:12:16;;;;;;;8.25;6.15;;;;;;;;;;5012775;28;20088;-56
2021/11/16 01:14:42;;;;;;;8.88;5.90;;;;;;;;;;5015644;28;20538;-56
2021/11/16 01:17:08;;;;;;;10.13;5.57;;;;;;;;;;5016690;28;20065;-59
2021/11/16 01:19:34;;;;;;;6.78;5.47;;;;;;;;;;5018348;28;20115;-58
2021/11/16 01:22:00;;;;;;;8.63;7.72;;;;;;;;;;5019005;28;20041;-59
2021/11/16 01:24:26;;;;;;;10.38;7.68;;;;;;;;;;5019972;28;20052;-59
2021/11/16 01:26:52;;;;;;;7.93;4.97;;;;;;;;;;5017996;28;20108;-58
2021/11/16 01:29:19;;;;;;;7.90;6.60;;;;;;;;;;5017982;28;20164;-58
2021/11/16 01:31:45;;;;;;;7.78;7.03;;;;;;;;;;5016747;28;20057;-58
2021/11/16 01:34:11;;;;;;;8.13;5.95;;;;;;;;;;5016291;28;20123;-58
2021/11/16 01:36:37;;;;;;;7.40;6.03;;;;;;;;;;5017094;28;20069;-58
2021/11/16 01:39:03;;;;;;;10.70;6.18;;;;;;;;;;5019855;28;20124;-58
2021/11/16 01:41:31;;;;;;;5.90;5.25;;;;;;;;;;5019488;28;20034;-58
2021/11/16 01:43:57;;;;;;;7.07;5.93;;;;;;;;;;5021726;28;20033;-58
2021/11/16 01:46:23;;;;;;;10.63;6.30;;;;;;;;;;5019450;28;20034;-58
2021/11/16 01:48:54;;;;;;;7.38;6.05;;;;;;;;;;5019180;28;20037;-58
2021/11/16 01:51:22;;;;;;;10.43;6.53;;;;;;;;;;5004042;28;20037;-58
2021/11/16 01:53:53;;;;;;;15.65;6.70;;;;;;;;;;5021613;28;20037;-58
2021/11/16 01:56:18;;;;;;;7.97;6.20;;;;;;;;;;5018268;28;20104;-59
2021/11/16 01:58:44;;;;;;;11.60;6.63;;;;;;;;;;5020457;28;20490;-59
2021/11/16 02:01:10;;;;;;;13.23;7.65;;;;;;;;;;5016918;28;20034;-58
2021/11/16 02:03:36;;;;;;;11.00;7.68;;;;;;;;;;5018666;28;20038;-58
2021/11/16 02:06:22;;;;;;;14.00;7.30;;;;;;;;;;5016429;28;20609;-55
2021/11/16 02:08:49;;;;;;;7.45;6.60;;;;;;;;;;5018193;28;20053;-56
2021/11/16 02:11:14;;;;;;;11.13;6.28;;;;;;;;;;5015566;28;20030;-56
2021/11/16 02:13:40;;;;;;;7.20;6.35;;;;;;;;;;5016817;28;20036;-55
2021/11/16 02:16:05;;;;;;;8.75;6.18;;;;;;;;;;5016987;28;20042;-57
2021/11/16 02:18:31;;;;;;;6.70;6.00;;;;;;;;;;5016025;28;20363;-57
2021/11/16 02:20:56;;;;;;;8.80;6.20;;;;;;;;;;5017279;28;20061;-57
2021/11/16 02:23:22;;;;;;;10.63;6.38;;;;;;;;;;5015310;28;20053;-57
2021/11/16 02:25:49;;;;;;;10.75;5.82;;;;;;;;;;5017550;28;20034;-55
2021/11/16 02:28:17;;;;;;;10.85;8.55;;;;;;;;;;5016281;28;20645;-55
2021/11/16 02:30:43;;;;;;;14.90;7.40;;;;;;;;;;5017036;28;20044;-55
2021/11/16 02:33:08;;;;;;;13.25;8.18;;;;;;;;;;5019285;28;20121;-55
2021/11/16 02:35:34;;;;;;;13.65;8.32;;;;;;;;;;5014536;28;20026;-55
2021/11/16 02:37:59;;;;;;;7.35;6.60;;;;;;;;;;5017166;28;20034;-55
2021/11/16 02:40:26;;;;;;;9.98;7.90;;;;;;;;;;5016331;28;20039;-55
2021/11/16 02:42:52;;;;;;;8.10;7.20;;;;;;;;;;5018682;28;20033;-55
2021/11/16 02:45:18;;;;;;;7.70;6.22;;;;;;;;;;5015740;28;20111;-56
2021/11/16 02:47:44;;;;;;;9.60;6.43;;;;;;;;;;5016092;28;20044;-56
2021/11/16 02:50:10;;;;;;;6.82;6.13;;;;;;;;;;5017234;28;20121;-55
2021/11/16 02:52:36;;;;;;;13.73;7.43;;;;;;;;;;5015669;28;20121;-56
2021/11/16 02:55:07;;;;;;;12.90;8.13;;;;;;;;;;5016164;28;20048;-54
2021/11/16 02:57:33;;;;;;;10.38;8.10;;;;;;;;;;5017391;28;20041;-55
2021/11/16 02:59:58;;;;;;;7.10;6.22;;;;;;;;;;5016372;28;20812;-54
2021/11/16 03:02:24;;;;;;;11.18;6.20;;;;;;;;;;5019005;28;20115;-54
2021/11/16 03:04:50;;;;;;;9.95;6.45;;;;;;;;;;5014995;28;20034;-53
2021/11/16 03:07:33;;;;;;;7.63;5.93;;;;;;;;;;5015130;28;20037;-53
2021/11/16 03:09:59;;;;;;;10.82;6.50;;;;;;;;;;5018607;28;20045;-54
2021/11/16 03:12:30;;;;;;;8.88;6.68;;;;;;;;;;5016546;28;20045;-52
2021/11/16 03:14:56;;;;;;;15.23;7.53;;;;;;;;;;5017484;28;20058;-59
2021/11/16 03:17:22;;;;;;;8.77;7.43;;;;;;;;;;5014969;28;20025;-56
2021/11/16 03:19:48;;;;;;;7.18;6.28;;;;;;;;;;5017401;28;20044;-55
2021/11/16 03:22:15;;;;;;;9.02;7.22;;;;;;;;;;5014798;28;20038;-55
2021/11/16 03:24:41;;;;;;;6.85;6.07;;;;;;;;;;5016393;28;20091;-56
2021/11/16 03:27:11;;;;;;;6.65;5.97;;;;;;;;;;5014336;28;20111;-55
2021/11/16 03:29:44;;;;;;;12.05;6.65;;;;;;;;;;5017307;28;20034;-56
2021/11/16 03:32:13;;;;;;;8.82;7.13;;;;;;;;;;5015797;28;20052;-55
2021/11/16 03:34:43;;;;;;;9.43;6.03;;;;;;;;;;5016928;28;20176;-54
2021/11/16 03:37:10;;;;;;;16.02;9.20;;;;;;;;;;5015196;28;20041;-55
2021/11/16 03:39:37;;;;;;;7.90;6.30;;;;;;;;;;5014983;28;20124;-55
2021/11/16 03:42:03;;;;;;;6.72;6.03;;;;;;;;;;5014602;28;20080;-56
2021/11/16 03:44:29;;;;;;;10.15;6.45;;;;;;;;;;5016813;28;20053;-56
2021/11/16 03:46:54;;;;;;;11.98;7.03;;;;;;;;;;5014894;28;20068;-57
2021/11/16 03:49:20;;;;;;;9.27;7.10;;;;;;;;;;5016373;28;20447;-57
2021/11/16 03:51:47;;;;;;;10.25;7.18;;;;;;;;;;5015330;28;20043;-57
2021/11/16 03:54:13;;;;;;;13.23;6.85;;;;;;;;;;5018931;28;20036;-57
2021/11/16 03:56:39;;;;;;;9.88;7.35;;;;;;;;;;5013762;28;20095;-57
2021/11/16 03:59:05;;;;;;;8.80;7.47;;;;;;;;;;5014559;28;20029;-56
2021/11/16 04:01:31;;;;;;;10.00;6.35;;;;;;;;;;5015153;28;20430;-58
2021/11/16 04:03:59;;;;;;;10.65;6.70;;;;;;;;;;5016289;28;20033;-57
2021/11/16 04:06:24;;;;;;;15.65;7.90;;;;;;;;;;5017504;28;20348;-56
2021/11/16 04:08:50;;;;;;;6.60;5.97;;;;;;;;;;5013860;28;20030;-56
2021/11/16 04:11:16;;;;;;;12.00;6.07;;;;;;;;;;5013815;28;20136;-56
2021/11/16 04:13:41;;;;;;;9.90;7.93;;;;;;;;;;5014569;28;20088;-56
2021/11/16 04:16:07;;;;;;;10.25;7.57;;;;;;;;;;5015841;28;20030;-57
2021/11/16 04:18:33;;;;;;;7.43;6.63;;;;;;;;;;5016347;28;20053;-56
2021/11/16 04:20:58;;;;;;;9.82;7.40;;;;;;;;;;5014027;28;20462;-55
2021/11/16 04:23:25;;;;;;;11.95;5.63;;;;;;;;;;5018405;28;20033;-55
2021/11/16 04:25:51;;;;;;;12.98;8.32;;;;;;;;;;5013609;28;20494;-56
2021/11/16 04:28:18;;;;;;;15.07;6.57;;;;;;;;;;5013516;28;20037;-56
2021/11/16 04:30:44;;;;;;;13.18;8.00;;;;;;;;;;5016152;28;20041;-56
2021/11/16 04:33:12;;;;;;;9.07;6.45;;;;;;;;;;5014835;28;20022;-58
2021/11/16 04:35:37;;;;;;;10.55;8.45;;;;;;;;;;5013220;28;20038;-56
2021/11/16 04:38:05;;;;;;;9.23;8.05;;;;;;;;;;5014938;28;20026;-56
2021/11/16 04:40:37;;;;;;;10.95;6.63;;;;;;;;;;5014093;28;20065;-56
2021/11/16 04:43:09;;;;;;;8.48;5.95;;;;;;;;;;5017804;28;20404;-57
2021/11/16 04:45:39;;;;;;;9.02;6.80;;;;;;;;;;5014588;28;20042;-57
2021/11/16 04:48:17;;;;;;;12.17;7.33;;;;;;;;;;5011533;28;20030;-58
2021/11/16 04:53:57;;;;;;;8.90;6.32;;;;;;;;;;5014109;28;20038;-59
2021/11/16 05:04:17;;;;;;;9.48;6.18;;;;;;;;;;5010568;28;20065;-62
2021/11/16 05:06:43;;;;;;;9.30;7.18;;;;;;;;;;5005802;28;20129;-58
2021/11/16 05:09:10;;;;;;;9.68;7.07;;;;;;;;;;5012362;28;20057;-58
2021/11/16 05:11:35;;;;;;;6.20;5.60;;;;;;;;;;5012696;28;20083;-57
2021/11/16 05:14:01;;;;;;;9.05;7.60;;;;;;;;;;5013999;28;20113;-58
2021/11/16 05:16:26;;;;;;;8.57;7.10;;;;;;;;;;5011265;28;20109;-56
2021/11/16 05:18:52;;;;;;;7.80;6.70;;;;;;;;;;5013712;28;20482;-57
2021/11/16 05:21:18;;;;;;;10.85;6.00;;;;;;;;;;5014293;28;20052;-57
2021/11/16 05:23:56;;;;;;;8.15;5.90;;;;;;;;;;5011920;28;20119;-58
2021/11/16 05:26:23;;;;;;;13.02;8.15;;;;;;;;;;5012279;28;20120;-58
2021/11/16 05:28:49;;;;;;;8.73;6.90;;;;;;;;;;5013214;28;20061;-58
2021/11/16 05:31:16;;;;;;;12.68;7.38;;;;;;;;;;5013160;28;20053;-58
2021/11/16 05:33:42;;;;;;;7.82;6.15;;;;;;;;;;5013876;28;20034;-57
2021/11/16 05:36:08;;;;;;;12.77;7.53;;;;;;;;;;5014524;28;20045;-54
2021/11/16 05:38:36;;;;;;;11.35;5.75;;;;;;;;;;5014908;28;20641;-56
2021/11/16 05:41:03;;;;;;;6.40;5.75;;;;;;;;;;5011788;28;20030;-57
2021/11/16 05:43:29;;;;;;;9.27;7.18;;;;;;;;;;5011474;28;20049;-57
2021/11/16 05:45:55;;;;;;;9.77;7.45;;;;;;;;;;5012971;28;20088;-57
2021/11/16 05:48:23;;;;;;;9.40;6.03;;;;;;;;;;5012199;28;20115;-59
2021/11/16 05:50:50;;;;;;;6.97;6.13;;;;;;;;;;5014506;28;20064;-58
2021/11/16 05:53:16;;;;;;;8.18;5.70;;;;;;;;;;5013702;28;20460;-57
2021/11/16 05:55:46;;;;;;;13.68;7.38;;;;;;;;;;5015168;28;20034;-57
2021/11/16 05:58:15;;;;;;;12.35;7.75;;;;;;;;;;5014142;28;20503;-58
2021/11/16 06:00:41;;;;;;;7.75;6.95;;;;;;;;;;5012427;28;20045;-59
2021/11/16 06:03:06;;;;;;;10.98;6.20;;;;;;;;;;5016274;28;20475;-58
2021/11/16 06:05:32;;;;;;;10.30;5.88;;;;;;;;;;5021154;28;20111;-56
2021/11/16 06:07:57;;;;;;;7.93;6.90;;;;;;;;;;5019277;28;20044;-56
2021/11/16 06:10:22;;;;;;;12.07;6.70;;;;;;;;;;5018168;28;20118;-56
2021/11/16 06:12:48;;;;;;;8.52;6.53;;;;;;;;;;5017061;28;20071;-57
2021/11/16 06:15:13;;;;;;;9.15;7.88;;;;;;;;;;5019749;28;20104;-56
2021/11/16 06:17:41;;;;;;;9.13;5.80;;;;;;;;;;5014294;28;20509;-56
2021/11/16 06:20:08;;;;;;;8.60;7.43;;;;;;;;;;5018122;28;20037;-55
2021/11/16 06:22:33;;;;;;;11.05;7.65;;;;;;;;;;5014373;28;20376;-57
2021/11/16 06:24:58;;;;;;;10.80;7.93;;;;;;;;;;5014554;28;20053;-58
2021/11/16 06:27:23;;;;;;;10.85;7.38;;;;;;;;;;5014144;28;20030;-59
2021/11/16 06:29:49;;;;;;;11.07;7.50;;;;;;;;;;5017336;28;20136;-59
2021/11/16 06:32:14;;;;;;;7.75;5.85;;;;;;;;;;5019786;28;20109;-58
2021/11/16 06:34:40;;;;;;;16.95;8.75;;;;;;;;;;5019889;28;20033;-59
2021/11/16 06:37:05;;;;;;;10.00;8.13;;;;;;;;;;5021609;28;20056;-59
2021/11/16 06:39:31;;;;;;;12.07;7.15;;;;;;;;;;5017542;28;20145;-59
2021/11/16 06:41:57;;;;;;;6.20;5.60;;;;;;;;;;5013306;28;20021;-59
2021/11/16 06:44:23;;;;;;;9.95;5.57;;;;;;;;;;5013985;28;20511;-59
2021/11/16 06:46:50;;;;;;;8.38;7.43;;;;;;;;;;5013755;28;20058;-59
2021/11/16 06:49:16;;;;;;;12.55;6.18;;;;;;;;;;5016902;28;20040;-59
2021/11/16 06:51:44;;;;;;;7.07;6.20;;;;;;;;;;5013627;28;20042;-59
2021/11/16 06:54:24;;;;;;;9.98;7.45;;;;;;;;;;5017490;28;20037;-58
2021/11/16 06:56:51;;;;;;;8.82;7.50;;;;;;;;;;5014778;28;20379;-59
2021/11/16 06:59:19;;;;;;;8.25;7.40;;;;;;;;;;5013609;28;20034;-59
2021/11/16 07:01:45;;;;;;;7.55;6.75;;;;;;;;;;5017696;28;20033;-59
2021/11/16 07:04:11;;;;;;;24.17;8.32;;;;;;;;;;5016622;28;20376;-59
2021/11/16 07:06:39;;;;;;;7.43;6.03;;;;;;;;;;5011050;28;20037;-58
2021/11/16 07:09:06;;;;;;;7.43;5.82;;;;;;;;;;5011959;28;20034;-59
2021/11/16 07:11:31;;;;;;;11.90;7.72;;;;;;;;;;5016748;28;20165;-58
2021/11/16 07:14:06;;;;;;;7.72;5.38;;;;;;;;;;5013593;28;20120;-58
2021/11/16 07:16:37;;;;;;;9.05;6.00;;;;;;;;;;5014987;28;20029;-58
2021/11/16 07:19:08;;;;;;;7.43;6.18;;;;;;;;;;5018213;28;20053;-56
2021/11/16 07:21:51;;;;;;;14.75;7.55;;;;;;;;;;5013592;28;20037;-56
2021/11/16 07:24:22;;;;;;;7.03;5.93;;;;;;;;;;5016436;28;20037;-56
2021/11/16 07:26:55;;;;;;;8.73;6.18;;;;;;;;;;5014273;28;20167;-57
2021/11/16 07:29:47;;;;;;;18.42;6.95;;;;;;;;;;5017667;28;20367;-58
2021/11/16 07:32:17;;;;;;;8.93;5.95;;;;;;;;;;5014531;28;20034;-57
2021/11/16 07:34:44;;;;;;;14.13;7.47;;;;;;;;;;5013937;28;20061;-56
2021/11/16 07:37:13;;;;;;;8.68;7.28;;;;;;;;;;5012117;28;20681;-58
2021/11/16 07:39:51;;;;;;;11.02;7.13;;;;;;;;;;5013249;28;20107;-59
2021/11/16 07:42:18;;;;;;;12.73;8.55;;;;;;;;;;5013597;28;20485;-59
2021/11/16 07:45:01;;;;;;;8.50;6.47;;;;;;;;;;5018803;28;20056;-56
2021/11/16 07:48:01;;;;;;;12.90;7.68;;;;;;;;;;5017528;28;20407;-59
2021/11/16 07:50:32;;;;;;;11.40;7.53;;;;;;;;;;5011589;28;20030;-57
2021/11/16 07:53:31;;;;;;;10.38;6.93;;;;;;;;;;5013482;28;20348;-56
2021/11/16 07:56:00;;;;;;;8.88;6.13;;;;;;;;;;5017321;28;20486;-55
2021/11/16 07:58:31;;;;;;;9.70;6.95;;;;;;;;;;5016941;28;20053;-59
2021/11/16 08:01:00;;;;;;;7.70;6.32;;;;;;;;;;5016111;28;20529;-56
2021/11/16 08:03:27;;;;;;;9.02;6.00;;;;;;;;;;5015244;28;20034;-57
2021/11/16 08:08:40;;;;;;;10.02;7.55;;;;;;;;;;5016142;28;20121;-57
2021/11/16 08:13:55;;;;;;;10.60;7.20;;;;;;;;;;5017305;28;20454;-55
2021/11/16 08:16:22;;;;;;;10.68;7.75;;;;;;;;;;5013572;28;20080;-57
2021/11/16 08:18:59;;;;;;;9.48;6.75;;;;;;;;;;5015195;28;20037;-57
2021/11/16 08:21:27;;;;;;;10.10;7.63;;;;;;;;;;5014279;28;20034;-54
2021/11/16 08:23:57;;;;;;;11.40;5.88;;;;;;;;;;5014561;28;20029;-57
2021/11/16 08:26:26;;;;;;;9.13;6.88;;;;;;;;;;5012358;28;20045;-56
2021/11/16 08:28:52;;;;;;;13.35;7.25;;;;;;;;;;5011947;28;20042;-59
2021/11/16 08:31:19;;;;;;;8.55;7.00;;;;;;;;;;5014216;28;20436;-59
2021/11/16 08:33:45;;;;;;;11.02;7.63;;;;;;;;;;5013168;28;20115;-59
2021/11/16 08:36:10;;;;;;;9.27;7.00;;;;;;;;;;5014458;28;20040;-59
2021/11/16 08:38:37;;;;;;;8.80;7.53;;;;;;;;;;5014540;28;20038;-56
2021/11/16 08:41:04;;;;;;;11.75;7.07;;;;;;;;;;5012943;28;20044;-57
2021/11/16 08:43:36;;;;;;;7.13;5.93;;;;;;;;;;5012624;28;20526;-56
2021/11/16 08:46:04;;;;;;;12.27;7.10;;;;;;;;;;5015561;28;20483;-55
2021/11/16 08:48:30;;;;;;;16.17;7.95;;;;;;;;;;5014129;28;20038;-59
2021/11/16 08:51:01;;;;;;;7.90;6.32;;;;;;;;;;5015911;28;20072;-59
2021/11/16 08:53:29;;;;;;;10.13;7.68;;;;;;;;;;5012846;28;20037;-59
2021/11/16 08:55:55;;;;;;;14.20;7.55;;;;;;;;;;5014244;28;20034;-59
2021/11/16 08:58:25;;;;;;;9.15;7.43;;;;;;;;;;5014412;28;20038;-59
2021/11/16 09:00:58;;;;;;;14.57;9.63;;;;;;;;;;5013140;28;20045;-58
2021/11/16 09:03:29;;;;;;;11.10;6.95;;;;;;;;;;5014187;28;20060;-58
2021/11/16 09:05:56;;;;;;;;;;;;;;;;;;5014552;28;20037;-59
2021/11/16 09:08:27;;;;;;;9.60;6.70;;;;;;;;;;5017181;28;19952;-58
2021/11/16 09:11:04;;;;;;;10.75;6.38;;;;;;;;;;5013963;28;20029;-59
2021/11/16 09:13:32;;;;;;;7.53;6.70;;;;;;;;;;5012330;28;20033;-56
2021/11/16 09:16:11;;;;;;;9.93;6.57;;;;;;;;;;5013015;28;20444;-56
2021/11/16 09:18:54;;;;;;;10.45;6.88;;;;;;;;;;5013656;28;20037;-57
2021/11/16 09:21:22;;;;;;;11.40;7.43;;;;;;;;;;5014623;28;20450;-56
2021/11/16 09:23:53;;;;;;;12.20;6.80;;;;;;;;;;5018150;28;20104;-56
2021/11/16 09:26:32;;;;;;;6.95;6.07;;;;;;;;;;5016649;28;20554;-56
2021/11/16 09:29:01;;;;;;;13.50;8.35;;;;;;;;;;5014074;28;20034;-57
2021/11/16 09:31:30;;;;;;;7.03;5.28;;;;;;;;;;5014918;28;20473;-58
2021/11/16 09:34:05;;;;;;;8.63;6.93;;;;;;;;;;5014608;28;20021;-59
2021/11/16 09:36:36;;;;;;;7.35;6.43;;;;;;;;;;5011620;28;20088;-59
2021/11/16 09:39:09;;;;;;;9.48;7.63;;;;;;;;;;5018382;28;20543;-59
2021/11/16 09:41:34;;;;;;;9.15;7.13;;;;;;;;;;5017248;28;20030;-60
2021/11/16 09:44:13;;;;;;;16.52;8.57;;;;;;;;;;5015174;28;20045;-59
2021/11/16 09:46:50;;;;;;;11.10;7.30;;;;;;;;;;5018306;28;20029;-56
2021/11/16 09:49:17;;;;;;;8.88;7.50;;;;;;;;;;5015628;28;20180;-55
2021/11/16 09:51:54;;;;;;;7.82;6.65;;;;;;;;;;5013791;28;20147;-57
2021/11/16 09:54:20;;;;;;;10.77;7.40;;;;;;;;;;5017168;28;20029;-57
2021/11/16 09:56:46;;;;;;;7.32;6.47;;;;;;;;;;5015064;28;20460;-57
2021/11/16 09:59:24;;;;;;;9.02;6.78;;;;;;;;;;5019083;28;20494;-59
2021/11/16 10:01:49;;;;;;;9.38;7.93;;;;;;;;;;5018559;28;20034;-59
2021/11/16 10:04:26;;;;;;;11.32;8.50;;;;;;;;;;5018912;28;20040;-59
2021/11/16 10:06:53;;;;;;;7.35;6.20;;;;;;;;;;5020182;28;20037;-59
2021/11/16 10:09:18;;;;;;;12.80;8.18;;;;;;;;;;5019561;28;20030;-59
2021/11/16 10:11:44;;;;;;;10.85;7.30;;;;;;;;;;5012878;28;20036;-59
2021/11/16 10:14:13;;;;;;;9.40;7.10;;;;;;;;;;5013525;28;20084;-59
2021/11/16 10:16:39;;;;;;;8.75;6.35;;;;;;;;;;5017298;28;20044;-59
2021/11/16 10:19:05;;;;;;;17.52;8.85;;;;;;;;;;5017442;28;20113;-59
2021/11/16 10:21:31;;;;;;;9.40;6.18;;;;;;;;;;5015760;28;20048;-59
2021/11/16 10:23:59;;;;;;;7.88;6.50;;;;;;;;;;5017768;28;20033;-59
2021/11/16 10:26:35;;;;;;;11.00;5.57;;;;;;;;;;5015879;28;20688;-59
2021/11/16 10:29:01;;;;;;;7.88;6.38;;;;;;;;;;5019252;28;20033;-59
2021/11/16 10:31:31;;;;;;;9.15;6.28;;;;;;;;;;5017637;28;20099;-58
2021/11/16 10:33:58;;;;;;;12.15;6.75;;;;;;;;;;5014529;28;20029;-59
2021/11/16 10:36:23;;;;;;;9.23;6.65;;;;;;;;;;5018238;28;20641;-59
2021/11/16 10:38:57;;;;;;;10.27;6.85;;;;;;;;;;5013749;28;20045;-59
2021/11/16 10:41:26;;;;;;;10.60;7.22;;;;;;;;;;5013780;28;20034;-58
2021/11/16 10:43:59;;;;;;;13.07;7.95;;;;;;;;;;5014764;28;20109;-57
2021/11/16 10:46:28;;;;;;;12.13;7.20;;;;;;;;;;5030671;28;21235;-57
2021/11/16 10:48:56;;;;;;;7.32;6.30;;;;;;;;;;5015830;28;20038;-58
2021/11/16 10:51:27;;;;;;;10.90;7.55;;;;;;;;;;5014214;28;20056;-58
2021/11/16 10:53:55;;;;;;;11.35;5.68;;;;;;;;;;5020235;28;20033;-57
2021/11/16 10:56:36;;;;;;;8.07;6.60;;;;;;;;;;5015827;28;20120;-58
2021/11/16 10:59:10;;;;;;;9.10;7.05;;;;;;;;;;5017364;28;20087;-59
2021/11/16 11:01:49;;;;;;;7.15;5.95;;;;;;;;;;5014355;28;20057;-58
2021/11/16 11:04:20;;;;;;;10.30;5.88;;;;;;;;;;5018862;28;20025;-59
2021/11/16 11:06:49;;;;;;;11.35;8.02;;;;;;;;;;5015073;28;20129;-59
2021/11/16 11:09:16;;;;;;;6.93;5.88;;;;;;;;;;5015365;28;20044;-59
2021/11/16 11:11:47;;;;;;;12.50;7.57;;;;;;;;;;5013661;28;20025;-59
2021/11/16 11:14:19;;;;;;;9.60;6.10;;;;;;;;;;5014785;28;20087;-59
2021/11/16 11:17:03;;;;;;;6.00;5.40;;;;;;;;;;5015165;28;20454;-58
2021/11/16 11:19:35;;;;;;;12.63;6.50;;;;;;;;;;5014214;28;20096;-59
2021/11/16 11:22:26;;;;;;;11.43;7.80;;;;;;;;;;5013188;28;20048;-59
2021/11/16 11:25:11;;;;;;;10.90;7.90;;;;;;;;;;5012960;28;20828;-59
2021/11/16 11:27:56;;;;;;;18.17;9.05;;;;;;;;;;5015074;28;20376;-59
2021/11/16 11:30:23;;;;;;;9.35;6.82;;;;;;;;;;5013928;28;20084;-59
2021/11/16 11:32:52;;;;;;;9.60;8.13;;;;;;;;;;5014634;28;20117;-59
2021/11/16 11:35:24;;;;;;;7.43;6.55;;;;;;;;;;5010771;28;20098;-59
2021/11/16 11:37:54;;;;;;;7.75;5.18;;;;;;;;;;5016275;28;20045;-59
2021/11/16 11:40:26;;;;;;;9.63;5.15;;;;;;;;;;5013235;28;20029;-59
2021/11/16 11:42:53;;;;;;;9.70;7.47;;;;;;;;;;5016140;28;20475;-59
2021/11/16 11:45:29;;;;;;;10.20;7.40;;;;;;;;;;5016253;28;20164;-59
2021/11/16 11:48:01;;;;;;;8.90;6.70;;;;;;;;;;5010580;28;20048;-59
2021/11/16 11:50:48;;;;;;;8.10;6.30;;;;;;;;;;5014963;28;20057;-58
2021/11/16 11:53:22;;;;;;;12.10;6.97;;;;;;;;;;5017909;28;20136;-57
2021/11/16 11:55:51;;;;;;;6.90;5.63;;;;;;;;;;5016054;28;20128;-57
2021/11/16 11:58:19;;;;;;;7.90;5.97;;;;;;;;;;5012842;28;20109;-56
2021/11/16 12:00:46;;;;;;;7.95;6.15;;;;;;;;;;5013147;28;20042;-58
2021/11/16 12:03:12;;;;;;;9.02;5.53;;;;;;;;;;5017339;28;20100;-58
2021/11/16 12:05:41;;;;;;;10.30;7.28;;;;;;;;;;5013980;28;20042;-59
2021/11/16 12:08:07;;;;;;;8.18;6.95;;;;;;;;;;5017191;28;20033;-59
2021/11/16 12:10:33;;;;;;;6.53;5.90;;;;;;;;;;5013769;28;20037;-59
2021/11/16 12:12:59;;;;;;;8.27;6.38;;;;;;;;;;5011621;28;20061;-59
2021/11/16 12:15:41;;;;;;;9.05;6.22;;;;;;;;;;5014822;28;20068;-57
2021/11/16 12:18:08;;;;;;;8.45;5.45;;;;;;;;;;5013653;28;20034;-57
2021/11/16 12:20:36;;;;;;;8.02;6.05;;;;;;;;;;5017177;28;20370;-59
2021/11/16 12:23:03;;;;;;;9.25;6.00;;;;;;;;;;5012463;28;20100;-57
2021/11/16 12:25:29;;;;;;;8.38;5.85;;;;;;;;;;5016569;28;20113;-59
2021/11/16 12:27:55;;;;;;;9.38;7.07;;;;;;;;;;5011486;28;20124;-59
2021/11/16 12:30:33;;;;;;;13.25;6.25;;;;;;;;;;5016012;28;20103;-59
2021/11/16 12:32:59;;;;;;;6.35;5.40;;;;;;;;;;5014212;28;20378;-59
2021/11/16 12:35:25;;;;;;;6.00;5.18;;;;;;;;;;5011815;28;20026;-59
2021/11/16 12:37:53;;;;;;;8.07;5.88;;;;;;;;;;5013830;28;20041;-59
2021/11/16 12:40:34;;;;;;;9.60;6.10;;;;;;;;;;5012955;28;20033;-59
2021/11/16 12:43:12;;;;;;;10.70;7.85;;;;;;;;;;5015189;28;20037;-59
2021/11/16 12:45:59;;;;;;;7.63;5.38;;;;;;;;;;5015243;28;20037;-59
2021/11/16 12:48:49;;;;;;;13.40;6.38;;;;;;;;;;5016861;28;20112;-59
2021/11/16 12:51:17;;;;;;;7.60;5.57;;;;;;;;;;5013913;28;20033;-59
2021/11/16 12:54:08;;;;;;;6.93;5.93;;;;;;;;;;5013057;28;20099;-58
2021/11/16 12:56:43;;;;;;;5.20;4.15;;;;;;;;;;5015452;28;20576;-59
2021/11/16 12:59:23;;;;;;;8.75;5.80;;;;;;;;;;5016837;28;20162;-59
2021/11/16 13:01:56;;;;;;;6.07;4.93;;;;;;;;;;5012979;28;20065;-59
2021/11/16 13:04:37;;;;;;;9.07;5.30;;;;;;;;;;5016553;28;20029;-60
2021/11/16 13:07:30;;;;;;;8.18;5.05;;;;;;;;;;5011951;28;20037;-59
2021/11/16 13:09:56;;;;;;;8.23;5.43;;;;;;;;;;5014630;28;20060;-59
2021/11/16 13:12:34;;;;;;;7.03;5.55;;;;;;;;;;5014274;28;20045;-59
2021/11/16 13:15:22;;;;;;;7.97;5.40;;;;;;;;;;5011033;28;20043;-59
2021/11/16 13:17:51;;;;;;;7.90;5.07;;;;;;;;;;5011977;28;20372;-59
2021/11/16 13:20:28;;;;;;;7.38;5.75;;;;;;;;;;5014533;28;20065;-59
2021/11/16 13:23:01;;;;;;;11.45;6.18;;;;;;;;;;5013122;28;20055;-59
2021/11/16 13:25:45;;;;;;;14.60;6.03;;;;;;;;;;5011442;28;20033;-58
2021/11/16 13:28:31;;;;;;;10.52;4.70;;;;;;;;;;5012100;28;20034;-58
2021/11/16 13:31:06;;;;;;;7.30;6.28;;;;;;;;;;5012237;28;20034;-59
2021/11/16 13:33:45;;;;;;;6.30;5.18;;;;;;;;;;5010522;28;20034;-59
2021/11/16 13:36:13;;;;;;;6.30;5.15;;;;;;;;;;5011855;28;20455;-59
2021/11/16 13:38:52;;;;;;;9.55;6.80;;;;;;;;;;5014617;28;20033;-59
2021/11/16 13:41:45;;;;;;;5.78;4.78;;;;;;;;;;5013925;28;20501;-59
2021/11/16 13:44:13;;;;;;;7.78;5.47;;;;;;;;;;5009724;28;20392;-59
2021/11/16 13:46:40;;;;;;;4.97;4.43;;;;;;;;;;5015940;28;20029;-59
2021/11/16 13:49:07;;;;;;;9.57;6.85;;;;;;;;;;5011335;28;20042;-59
2021/11/16 13:51:33;;;;;;;9.05;6.25;;;;;;;;;;5010216;28;20037;-59
2021/11/16 13:54:04;;;;;;;5.80;4.93;;;;;;;;;;5011852;28;20877;-59
2021/11/16 13:56:31;;;;;;;7.30;6.27;;;;;;;;;;5012575;28;20045;-59
2021/11/16 13:58:56;;;;;;;7.97;5.70;;;;;;;;;;5014044;28;20283;-55
2021/11/16 14:01:33;;;;;;;10.80;6.28;;;;;;;;;;5012695;28;20084;-55
2021/11/16 14:04:16;;;;;;;5.97;5.03;;;;;;;;;;5013947;28;20042;-56
2021/11/16 14:06:42;;;;;;;6.85;5.22;;;;;;;;;;5012633;28;20452;-56
2021/11/16 14:09:24;;;;;;;5.05;4.55;;;;;;;;;;5011331;28;20048;-56
2021/11/16 14:11:55;;;;;;;7.82;5.60;;;;;;;;;;5012107;28;20034;-56
2021/11/16 14:14:23;;;;;;;9.75;6.00;;;;;;;;;;5013138;28;20470;-56
2021/11/16 14:16:55;;;;;;;5.72;5.18;;;;;;;;;;5016067;28;20030;-56
2021/11/16 14:19:22;;;;;;;9.68;6.15;;;;;;;;;;5015833;28;20034;-57
2021/11/16 14:21:49;;;;;;;15.55;7.65;;;;;;;;;;5013701;28;20038;-55
2021/11/16 14:24:26;;;;;;;12.23;8.80;;;;;;;;;;5013604;28;20333;-56
2021/11/16 14:26:51;;;;;;;48.88;27.52;;;;;;;;;;5014141;28;20041;-57
2021/11/16 14:29:18;;;;;;;14.32;8.80;;;;;;;;;;5014691;28;20025;-55
2021/11/16 14:31:43;;;;;;;140.38;82.65;;;;;;;;;;5016002;28;20025;-54
2021/11/16 14:34:12;;;;;;;36.33;25.00;;;;;;;;;;5014683;28;20047;-54
2021/11/16 14:36:41;;;;;;;36.33;22.25;;;;;;;;;;5014851;28;20036;-53
2021/11/16 14:39:15;;;;;;;25.45;12.18;;;;;;;;;;5014435;28;20570;-56
2021/11/16 14:41:47;;;;;;;12.38;8.38;;;;;;;;;;5014988;28;20042;-54
2021/11/16 14:44:15;;;;;;;8.18;5.90;;;;;;;;;;5017377;28;20041;-56
2021/11/16 14:46:41;;;;;;;7.00;5.82;;;;;;;;;;5015326;28;20040;-57
2021/11/16 14:49:08;;;;;;;6.45;4.30;;;;;;;;;;5018193;28;20034;-59
2021/11/16 14:51:45;;;;;;;7.80;5.90;;;;;;;;;;5017285;28;20042;-59
2021/11/16 14:54:13;;;;;;;8.88;5.68;;;;;;;;;;5015817;28;20124;-59
2021/11/16 14:56:41;;;;;;;6.75;5.70;;;;;;;;;;5016806;28;20560;-59
2021/11/16 14:59:22;;;;;;;7.10;6.40;;;;;;;;;;5012136;28;20065;-57
2021/11/16 15:01:51;;;;;;;8.35;6.40;;;;;;;;;;5014502;28;20025;-57
2021/11/16 15:04:20;;;;;;;7.57;6.22;;;;;;;;;;5018763;28;20033;-57
2021/11/16 15:06:46;;;;;;;9.52;5.90;;;;;;;;;;5016625;28;20045;-57
2021/11/16 15:09:17;;;;;;;6.53;5.72;;;;;;;;;;5018273;28;20459;-57